createdAt,value
2022-10-15T00:01:58.731Z,15.90
2022-10-15T00:04:33.033Z,15.90
2022-10-15T00:07:03.366Z,15.90
2022-10-15T00:09:33.836Z,15.90
2022-10-15T00:12:04.283Z,15.90
2022-10-15T00:14:34.815Z,15.80
2022-10-15T00:17:05.025Z,15.80
2022-10-15T00:19:38.058Z,15.80
2022-10-15T00:22:08.263Z,15.80
2022-10-15T00:24:39.902Z,15.80
2022-10-15T00:27:10.168Z,15.80
2022-10-15T00:29:40.429Z,15.80
2022-10-15T00:32:10.744Z,15.80
2022-10-15T00:34:45.486Z,15.80
2022-10-15T00:37:17.376Z,15.80
2022-10-15T00:39:47.882Z,15.80
2022-10-15T00:42:18.924Z,15.80
2022-10-15T00:44:56.080Z,15.80
2022-10-15T00:47:33.684Z,15.80
2022-10-15T00:50:10.143Z,15.80
2022-10-15T00:52:49.124Z,15.80
2022-10-15T00:55:24.200Z,15.80
2022-10-15T00:57:55.387Z,15.80
2022-10-15T01:00:25.789Z,15.80
2022-10-15T01:02:55.997Z,15.80
2022-10-15T01:05:30.112Z,15.80
2022-10-15T01:08:00.492Z,15.80
2022-10-15T01:10:39.674Z,15.80
2022-10-15T01:13:17.230Z,15.80
2022-10-15T01:15:51.668Z,15.80
2022-10-15T01:18:27.844Z,15.80
2022-10-15T01:21:14.371Z,15.80
2022-10-15T01:24:24.701Z,15.80
2022-10-15T01:27:22.449Z,15.80
2022-10-15T01:30:25.499Z,15.80
2022-10-15T01:33:27.867Z,15.80
2022-10-15T01:36:06.439Z,15.70
2022-10-15T01:38:48.975Z,15.80
2022-10-15T01:41:25.915Z,15.80
2022-10-15T01:44:03.541Z,15.80
2022-10-15T01:46:49.674Z,15.70
2022-10-15T01:49:34.540Z,15.80
2022-10-15T01:52:10.224Z,15.80
2022-10-15T01:54:41.464Z,15.80
2022-10-15T01:57:14.097Z,15.80
2022-10-15T01:59:46.616Z,15.70
2022-10-15T02:02:18.702Z,15.70
2022-10-15T02:04:51.658Z,15.70
2022-10-15T02:07:32.418Z,15.70
2022-10-15T02:10:10.796Z,15.70
2022-10-15T02:12:51.760Z,15.70
2022-10-15T02:15:29.332Z,15.70
2022-10-15T02:18:05.627Z,15.70
2022-10-15T02:20:47.575Z,15.60
2022-10-15T02:23:22.441Z,15.70
2022-10-15T02:25:55.019Z,15.60
2022-10-15T02:28:28.226Z,15.70
2022-10-15T02:31:00.348Z,15.70
2022-10-15T02:33:32.585Z,15.70
2022-10-15T02:36:06.003Z,15.60
2022-10-15T02:38:39.868Z,15.60
2022-10-15T02:41:12.178Z,15.60
2022-10-15T02:43:43.922Z,15.60
2022-10-15T02:46:17.718Z,15.50
2022-10-15T02:48:48.167Z,15.60
2022-10-15T02:51:23.735Z,15.60
2022-10-15T02:53:54.129Z,15.60
2022-10-15T02:56:24.450Z,15.60
2022-10-15T02:58:54.815Z,15.60
2022-10-15T03:01:25.730Z,15.60
2022-10-15T03:03:56.578Z,15.60
2022-10-15T03:06:29.547Z,15.60
2022-10-15T03:09:00.349Z,15.60
2022-10-15T03:11:30.672Z,15.50
2022-10-15T03:14:01.049Z,15.60
2022-10-15T03:16:33.382Z,15.60
2022-10-15T03:19:03.767Z,15.60
2022-10-15T03:21:36.848Z,15.60
2022-10-15T03:24:13.254Z,15.60
2022-10-15T03:26:43.550Z,15.60
2022-10-15T03:29:13.885Z,15.60
2022-10-15T03:31:54.642Z,15.60
2022-10-15T03:34:25.086Z,15.60
2022-10-15T03:36:58.154Z,15.60
2022-10-15T03:39:28.657Z,15.60
2022-10-15T03:42:02.467Z,15.60
2022-10-15T03:44:39.393Z,15.60
2022-10-15T03:47:13.532Z,15.60
2022-10-15T03:49:50.220Z,15.60
2022-10-15T03:52:23.680Z,15.60
2022-10-15T03:54:56.710Z,15.60
2022-10-15T03:57:28.181Z,15.60
2022-10-15T04:00:04.721Z,15.60
2022-10-15T04:02:42.418Z,15.50
2022-10-15T04:05:25.211Z,15.50
2022-10-15T04:08:02.974Z,15.50
2022-10-15T04:10:36.485Z,15.50
2022-10-15T04:13:06.863Z,15.50
2022-10-15T04:15:38.425Z,15.50
2022-10-15T04:18:12.195Z,15.40
2022-10-15T04:20:43.791Z,15.40
2022-10-15T04:23:20.626Z,15.40
2022-10-15T04:26:10.838Z,15.40
2022-10-15T04:28:41.204Z,15.30
2022-10-15T04:31:11.733Z,15.40
2022-10-15T04:33:43.254Z,15.40
2022-10-15T04:39:09.766Z,15.30
2022-10-15T04:41:47.010Z,15.30
2022-10-15T04:44:20.837Z,15.30
2022-10-15T04:46:58.908Z,15.30
2022-10-15T04:49:40.248Z,15.30
2022-10-15T04:52:49.120Z,15.20
2022-10-15T04:55:23.557Z,15.30
2022-10-15T04:57:56.979Z,15.30
2022-10-15T05:00:32.861Z,15.30
2022-10-15T05:03:15.150Z,15.20
2022-10-15T05:05:56.912Z,15.30
2022-10-15T05:08:27.524Z,15.30
2022-10-15T05:11:11.601Z,15.30
2022-10-15T05:13:42.336Z,15.30
2022-10-15T05:16:15.954Z,15.30
2022-10-15T05:18:48.848Z,15.30
2022-10-15T05:21:20.150Z,15.30
2022-10-15T05:23:54.487Z,15.30
2022-10-15T05:26:46.003Z,15.30
2022-10-15T05:29:18.654Z,15.20
2022-10-15T05:31:49.131Z,15.30
2022-10-15T05:34:23.786Z,15.30
2022-10-15T05:37:02.110Z,15.30
2022-10-15T05:39:32.381Z,15.30
2022-10-15T05:42:06.245Z,15.30
2022-10-15T05:44:47.405Z,15.20
2022-10-15T05:47:17.852Z,15.20
2022-10-15T05:49:49.377Z,15.20
2022-10-15T05:52:27.298Z,15.20
2022-10-15T05:55:16.980Z,15.20
2022-10-15T05:57:49.815Z,15.20
2022-10-15T06:00:20.314Z,15.20
2022-10-15T06:02:55.905Z,15.20
2022-10-15T06:05:28.075Z,15.20
2022-10-15T06:07:59.900Z,15.20
2022-10-15T06:10:31.274Z,15.20
2022-10-15T06:13:04.288Z,15.20
2022-10-15T06:15:34.741Z,15.10
2022-10-15T06:18:05.343Z,15.20
2022-10-15T06:20:35.838Z,15.20
2022-10-15T06:23:07.582Z,15.10
2022-10-15T06:25:39.792Z,15.20
2022-10-15T06:28:12.786Z,15.10
2022-10-15T06:30:44.960Z,15.20
2022-10-15T06:33:16.317Z,15.10
2022-10-15T06:35:46.950Z,15.10
2022-10-15T06:38:17.418Z,15.00
2022-10-15T06:40:47.672Z,15.20
2022-10-15T06:43:20.743Z,15.10
2022-10-15T06:45:50.980Z,15.10
2022-10-15T06:48:21.420Z,15.10
2022-10-15T06:50:51.751Z,15.10
2022-10-15T06:53:23.245Z,15.20
2022-10-15T06:55:53.507Z,15.10
2022-10-15T06:58:26.460Z,15.20
2022-10-15T07:01:02.183Z,15.20
2022-10-15T07:03:32.812Z,15.20
2022-10-15T07:06:06.342Z,15.20
2022-10-15T07:08:37.123Z,15.20
2022-10-15T07:11:08.963Z,15.20
2022-10-15T07:13:42.749Z,15.20
2022-10-15T07:16:14.921Z,15.20
2022-10-15T07:18:45.164Z,15.30
2022-10-15T07:21:15.506Z,15.30
2022-10-15T07:23:45.904Z,15.30
2022-10-15T07:26:16.084Z,15.30
2022-10-15T07:28:48.976Z,15.30
2022-10-15T07:31:19.335Z,15.30
2022-10-15T07:33:49.643Z,15.40
2022-10-15T07:36:20.875Z,15.30
2022-10-15T07:38:51.420Z,15.40
2022-10-15T07:41:21.759Z,15.40
2022-10-15T07:43:55.246Z,15.40
2022-10-15T07:46:25.517Z,15.40
2022-10-15T07:48:58.721Z,15.50
2022-10-15T07:51:29.033Z,15.40
2022-10-15T07:53:59.624Z,15.50
2022-10-15T07:56:29.925Z,15.50
2022-10-15T07:59:02.831Z,15.60
2022-10-15T08:01:33.069Z,15.50
2022-10-15T08:04:03.452Z,15.60
2022-10-15T08:06:35.365Z,15.60
2022-10-15T08:09:07.961Z,15.60
2022-10-15T08:11:38.281Z,15.60
2022-10-15T08:14:11.257Z,15.60
2022-10-15T08:16:41.546Z,15.70
2022-10-15T08:19:12.005Z,15.70
2022-10-15T08:21:43.938Z,15.70
2022-10-15T08:24:17.082Z,15.70
2022-10-15T08:26:47.354Z,15.70
2022-10-15T08:29:20.544Z,15.70
2022-10-15T08:31:51.249Z,15.70
2022-10-15T08:34:27.076Z,15.70
2022-10-15T08:36:57.334Z,15.70
2022-10-15T08:39:27.613Z,15.80
2022-10-15T08:42:00.727Z,15.80
2022-10-15T08:44:37.442Z,15.80
2022-10-15T08:47:13.047Z,15.80
2022-10-15T08:49:49.871Z,15.90
2022-10-15T08:52:26.937Z,15.90
2022-10-15T08:54:59.329Z,15.90
2022-10-15T08:57:41.493Z,15.90
2022-10-15T09:00:22.270Z,15.90
2022-10-15T09:03:00.558Z,15.90
2022-10-15T09:05:39.187Z,16.00
2022-10-15T09:08:11.512Z,16.00
2022-10-15T09:10:47.145Z,16.00
2022-10-15T09:13:26.499Z,16.00
2022-10-15T09:16:05.070Z,16.10
2022-10-15T09:18:36.646Z,16.10
2022-10-15T09:21:09.433Z,16.10
2022-10-15T09:23:41.565Z,16.10
2022-10-15T09:26:25.671Z,16.10
2022-10-15T09:29:05.116Z,16.20
2022-10-15T09:31:46.562Z,16.20
2022-10-15T09:34:24.631Z,16.20
2022-10-15T09:36:58.049Z,16.20
2022-10-15T09:39:54.227Z,16.30
2022-10-15T09:42:31.625Z,16.30
2022-10-15T09:45:05.522Z,16.30
2022-10-15T09:47:39.324Z,16.30
2022-10-15T09:50:12.231Z,16.40
2022-10-15T09:53:03.709Z,16.40
2022-10-15T09:55:45.029Z,16.40
2022-10-15T09:58:19.968Z,16.40
2022-10-15T10:01:02.737Z,16.40
2022-10-15T10:03:40.805Z,16.40
2022-10-15T10:06:13.367Z,16.50
2022-10-15T10:08:55.878Z,16.50
2022-10-15T10:11:28.416Z,16.60
2022-10-15T10:14:02.101Z,16.60
2022-10-15T10:16:34.065Z,16.60
2022-10-15T10:19:16.727Z,16.70
2022-10-15T10:21:47.060Z,16.80
2022-10-15T10:24:30.432Z,16.80
2022-10-15T10:27:01.864Z,16.80
2022-10-15T10:29:36.286Z,16.80
2022-10-15T10:32:14.885Z,16.80
2022-10-15T10:34:52.411Z,16.90
2022-10-15T10:37:24.584Z,17.00
2022-10-15T10:40:01.057Z,17.10
2022-10-15T10:42:40.540Z,17.10
2022-10-15T10:45:23.533Z,17.10
2022-10-15T10:47:53.993Z,17.20
2022-10-15T10:50:40.826Z,17.20
2022-10-15T10:53:25.952Z,17.30
2022-10-15T10:55:59.081Z,17.30
2022-10-15T10:58:35.142Z,17.30
2022-10-15T11:01:05.761Z,17.40
2022-10-15T11:03:39.804Z,17.40
2022-10-15T11:06:39.732Z,17.40
2022-10-15T11:09:25.391Z,17.40
2022-10-15T11:12:07.252Z,17.50
2022-10-15T11:14:47.152Z,17.60
2022-10-15T11:17:22.991Z,17.60
2022-10-15T11:20:21.786Z,17.60
2022-10-15T11:23:14.859Z,17.60
2022-10-15T11:25:51.944Z,17.70
2022-10-15T11:28:32.183Z,17.70
2022-10-15T11:31:09.273Z,17.70
2022-10-15T11:33:53.592Z,17.70
2022-10-15T11:36:39.100Z,17.70
2022-10-15T11:39:26.391Z,17.70
2022-10-15T11:42:04.080Z,17.70
2022-10-15T11:44:50.857Z,17.80
2022-10-15T11:47:31.797Z,17.90
2022-10-15T11:50:18.501Z,17.80
2022-10-15T11:53:02.422Z,17.80
2022-10-15T11:55:41.518Z,17.80
2022-10-15T11:58:18.157Z,17.80
2022-10-15T12:00:52.496Z,17.80
2022-10-15T12:03:26.696Z,17.90
2022-10-15T12:06:01.676Z,17.90
2022-10-15T12:08:37.525Z,17.90
2022-10-15T12:11:24.022Z,17.90
2022-10-15T12:13:59.729Z,17.90
2022-10-15T12:16:36.686Z,17.90
2022-10-15T12:19:16.844Z,17.90
2022-10-15T12:22:07.029Z,18.00
2022-10-15T12:24:54.039Z,18.00
2022-10-15T12:27:34.740Z,18.00
2022-10-15T12:30:26.130Z,17.90
2022-10-15T12:32:57.473Z,17.90
2022-10-15T12:35:36.800Z,17.90
2022-10-15T12:38:22.025Z,17.90
2022-10-15T12:41:08.122Z,17.90
2022-10-15T12:43:44.180Z,17.90
2022-10-15T12:46:15.912Z,17.90
2022-10-15T12:48:48.209Z,17.80
2022-10-15T12:51:42.865Z,17.70
2022-10-15T12:54:45.639Z,17.60
2022-10-15T12:57:51.706Z,17.50
2022-10-15T13:00:36.982Z,17.60
2022-10-15T13:03:36.440Z,17.70
2022-10-15T13:06:33.491Z,17.80
2022-10-15T13:09:17.914Z,17.80
2022-10-15T13:14:29.372Z,18.00
2022-10-15T13:17:08.577Z,18.00
2022-10-15T13:19:42.731Z,18.10
2022-10-15T13:22:25.206Z,18.10
2022-10-15T13:24:56.069Z,18.00
2022-10-15T13:27:28.349Z,18.00
2022-10-15T13:30:00.830Z,18.10
2022-10-15T13:32:36.593Z,18.10
2022-10-15T13:35:13.889Z,18.20
2022-10-15T13:44:08.274Z,18.40
2022-10-15T13:46:40.979Z,18.40
2022-10-15T13:49:16.812Z,18.40
2022-10-15T13:51:50.110Z,18.40
2022-10-15T13:54:24.349Z,18.40
2022-10-15T13:56:59.077Z,18.50
2022-10-15T13:59:31.423Z,18.60
2022-10-15T14:02:04.529Z,18.60
2022-10-15T14:04:37.379Z,18.70
2022-10-15T14:07:23.945Z,18.60
2022-10-15T14:09:54.557Z,18.60
2022-10-15T14:12:24.868Z,18.60
2022-10-15T14:14:55.196Z,18.60
2022-10-15T14:17:27.417Z,18.60
2022-10-15T14:20:27.678Z,18.50
2022-10-15T14:22:58.212Z,18.40
2022-10-15T14:25:29.353Z,18.50
2022-10-15T14:27:59.792Z,18.40
2022-10-15T14:30:34.667Z,18.40
2022-10-15T14:33:04.992Z,18.40
2022-10-15T14:35:39.816Z,18.40
2022-10-15T14:38:19.732Z,18.40
2022-10-15T14:41:04.939Z,18.50
2022-10-15T14:43:39.195Z,18.50
2022-10-15T14:46:11.319Z,18.50
2022-10-15T14:48:45.936Z,18.40
2022-10-15T14:51:27.774Z,18.40
2022-10-15T14:53:58.643Z,18.40
2022-10-15T14:56:35.524Z,18.30
2022-10-15T14:59:09.227Z,18.40
2022-10-15T15:01:39.547Z,18.40
2022-10-15T15:04:29.839Z,18.40
2022-10-15T15:07:02.726Z,18.40
2022-10-15T15:09:33.054Z,18.40
2022-10-15T15:12:04.022Z,18.40
2022-10-15T15:14:34.427Z,18.50
2022-10-15T15:17:04.680Z,18.50
2022-10-15T15:19:34.980Z,18.40
2022-10-15T15:22:08.544Z,18.40
2022-10-15T15:24:38.922Z,18.30
2022-10-15T15:27:09.139Z,18.30
2022-10-15T15:29:39.465Z,18.30
2022-10-15T15:32:11.563Z,18.30
2022-10-15T15:34:41.871Z,18.20
2022-10-15T15:37:19.579Z,18.20
2022-10-15T15:39:50.225Z,18.20
2022-10-15T15:42:22.405Z,18.20
2022-10-15T15:44:53.023Z,18.20
2022-10-15T15:47:23.260Z,18.20
2022-10-15T15:49:53.803Z,18.20
2022-10-15T15:52:27.112Z,18.10
2022-10-15T15:54:57.649Z,18.10
2022-10-15T15:57:27.977Z,18.10
2022-10-15T15:59:58.322Z,18.10
2022-10-15T16:02:28.688Z,18.10
2022-10-15T16:04:59.011Z,18.10
2022-10-15T16:07:32.149Z,18.10
2022-10-15T16:10:04.208Z,18.10
2022-10-15T16:12:34.675Z,18.10
2022-10-15T16:15:05.607Z,18.10
2022-10-15T16:17:37.253Z,18.00
2022-10-15T16:20:08.664Z,18.00
2022-10-15T16:22:42.819Z,18.00
2022-10-15T16:25:13.511Z,17.90
2022-10-15T16:27:45.710Z,17.90
2022-10-15T16:30:15.980Z,17.90
2022-10-15T16:32:46.245Z,17.80
2022-10-15T16:35:16.460Z,17.80
2022-10-15T16:37:49.724Z,17.80
2022-10-15T16:40:19.983Z,17.70
2022-10-15T16:42:50.241Z,17.70
2022-10-15T16:45:20.741Z,17.70
2022-10-15T16:47:51.067Z,17.70
2022-10-15T16:50:21.747Z,17.60
2022-10-15T16:52:54.838Z,17.60
2022-10-15T16:55:25.490Z,17.60
2022-10-15T16:57:55.713Z,17.50
2022-10-15T17:00:26.032Z,17.50
2022-10-15T17:02:56.941Z,17.40
2022-10-15T17:05:27.189Z,17.40
2022-10-15T17:08:00.036Z,17.40
2022-10-15T17:10:30.391Z,17.30
2022-10-15T17:13:00.778Z,17.40
2022-10-15T17:15:31.062Z,17.40
2022-10-15T17:18:01.352Z,17.30
2022-10-15T17:20:31.698Z,17.30
2022-10-15T17:23:04.674Z,17.30
2022-10-15T17:25:34.901Z,17.20
2022-10-15T17:28:05.306Z,17.20
2022-10-15T17:30:38.843Z,17.20
2022-10-15T17:33:09.304Z,17.20
2022-10-15T17:35:40.556Z,17.20
2022-10-15T17:38:13.527Z,17.10
2022-10-15T17:40:43.916Z,17.10
2022-10-15T17:43:14.160Z,17.10
2022-10-15T17:45:44.394Z,17.10
2022-10-15T17:48:14.819Z,17.10
2022-10-15T17:50:45.559Z,17.00
2022-10-15T17:53:18.599Z,17.00
2022-10-15T17:55:48.873Z,17.00
2022-10-15T17:58:20.328Z,17.00
2022-10-15T18:00:56.075Z,17.00
2022-10-15T18:03:28.691Z,17.00
2022-10-15T18:05:58.947Z,17.00
2022-10-15T18:08:32.281Z,17.00
2022-10-15T18:11:02.510Z,17.00
2022-10-15T18:13:34.884Z,17.00
2022-10-15T18:16:05.319Z,17.00
2022-10-15T18:18:35.704Z,17.00
2022-10-15T18:21:10.484Z,16.90
2022-10-15T18:23:43.421Z,16.90
2022-10-15T18:26:19.613Z,16.90
2022-10-15T18:28:51.779Z,16.90
2022-10-15T18:31:23.079Z,16.90
2022-10-15T18:33:55.665Z,16.90
2022-10-15T18:36:27.901Z,16.80
2022-10-15T18:39:01.816Z,16.90
2022-10-15T18:41:35.872Z,16.90
2022-10-15T18:44:08.147Z,16.80
2022-10-15T18:46:39.878Z,16.80
2022-10-15T18:49:10.111Z,16.80
2022-10-15T18:51:40.571Z,16.80
2022-10-15T18:54:13.645Z,16.80
2022-10-15T18:56:43.934Z,16.80
2022-10-15T18:59:14.224Z,16.80
2022-10-15T19:01:45.483Z,16.70
2022-10-15T19:04:18.530Z,16.70
2022-10-15T19:06:51.612Z,16.70
2022-10-15T19:09:26.453Z,16.70
2022-10-15T19:11:58.549Z,16.70
2022-10-15T19:14:30.924Z,16.70
2022-10-15T19:17:01.253Z,16.70
2022-10-15T19:19:32.272Z,16.70
2022-10-15T19:22:02.771Z,16.70
2022-10-15T19:24:35.689Z,16.60
2022-10-15T19:27:05.919Z,16.60
2022-10-15T19:29:36.310Z,16.60
2022-10-15T19:32:06.652Z,16.60
2022-10-15T19:34:37.870Z,16.60
2022-10-15T19:37:08.135Z,16.60
2022-10-15T19:39:53.716Z,16.60
2022-10-15T19:42:24.569Z,16.60
2022-10-15T19:44:54.868Z,16.60
2022-10-15T19:47:25.688Z,16.60
2022-10-15T19:49:56.133Z,16.60
2022-10-15T19:52:26.418Z,16.50
2022-10-15T19:54:59.357Z,16.50
2022-10-15T19:57:29.575Z,16.60
2022-10-15T19:59:59.772Z,16.50
2022-10-15T20:02:30.102Z,16.50
2022-10-15T20:05:00.274Z,16.40
2022-10-15T20:07:30.581Z,16.40
2022-10-15T20:10:03.677Z,16.40
2022-10-15T20:12:34.046Z,16.40
2022-10-15T20:15:04.544Z,16.40
2022-10-15T20:17:34.865Z,16.40
2022-10-15T20:20:05.642Z,16.30
2022-10-15T20:22:35.998Z,16.30
2022-10-15T20:25:09.226Z,16.30
2022-10-15T20:27:39.502Z,16.30
2022-10-15T20:30:11.480Z,16.30
2022-10-15T20:32:43.513Z,16.30
2022-10-15T20:35:13.819Z,16.30
2022-10-15T20:37:44.109Z,16.20
2022-10-15T20:40:17.829Z,16.20
2022-10-15T20:42:48.078Z,16.20
2022-10-15T20:45:18.314Z,16.20
2022-10-15T20:47:53.134Z,16.20
2022-10-15T20:50:27.187Z,16.20
2022-10-15T20:52:59.016Z,16.20
2022-10-15T20:55:32.021Z,16.10
2022-10-15T20:58:02.763Z,16.20
2022-10-15T21:00:33.038Z,16.10
2022-10-15T21:03:03.289Z,16.10
2022-10-15T21:05:33.543Z,16.10
2022-10-15T21:08:03.853Z,16.10
2022-10-15T21:10:37.046Z,16.10
2022-10-15T21:13:07.372Z,16.10
2022-10-15T21:15:37.641Z,16.10
2022-10-15T21:18:07.957Z,16.00
2022-10-15T21:20:38.354Z,16.00
2022-10-15T21:23:08.684Z,16.00
2022-10-15T21:25:41.670Z,16.00
2022-10-15T21:28:12.000Z,16.00
2022-10-15T21:30:43.178Z,16.00
2022-10-15T21:33:13.410Z,16.00
2022-10-15T21:35:43.595Z,16.00
2022-10-15T21:38:13.823Z,16.00
2022-10-15T21:40:46.668Z,16.00
2022-10-15T21:43:16.877Z,16.00
2022-10-15T21:45:47.129Z,16.00
2022-10-15T21:48:17.386Z,16.00
2022-10-15T21:50:50.135Z,16.00
2022-10-15T21:53:20.601Z,16.00
2022-10-15T21:55:58.776Z,16.00
2022-10-15T21:58:29.067Z,16.00
2022-10-15T22:00:59.311Z,16.00
2022-10-15T22:03:29.628Z,16.00
2022-10-15T22:06:02.072Z,15.90
2022-10-15T22:08:32.864Z,16.00
2022-10-15T22:11:14.807Z,16.00
2022-10-15T22:13:46.784Z,15.90
2022-10-15T22:16:18.319Z,15.90
2022-10-15T22:18:49.250Z,15.90
2022-10-15T22:21:21.339Z,15.90
2022-10-15T22:23:53.713Z,15.90
2022-10-15T22:26:28.027Z,15.90
2022-10-15T22:29:00.224Z,15.90
2022-10-15T22:31:31.141Z,15.90
2022-10-15T22:34:01.547Z,15.90
2022-10-15T22:36:33.481Z,15.90
2022-10-15T22:39:05.818Z,15.90
2022-10-15T22:41:41.567Z,15.80
2022-10-15T22:44:14.146Z,15.80
2022-10-15T22:46:46.280Z,15.80
2022-10-15T22:49:17.259Z,15.80
2022-10-15T22:51:47.486Z,15.80
2022-10-15T22:54:18.708Z,15.90
2022-10-15T22:56:52.165Z,15.80
2022-10-15T22:59:22.776Z,15.80
2022-10-15T23:01:53.074Z,15.80
2022-10-15T23:04:23.445Z,15.80
2022-10-15T23:06:53.757Z,15.70
2022-10-15T23:09:24.187Z,15.80
2022-10-15T23:11:57.170Z,15.80
2022-10-15T23:14:27.476Z,15.80
2022-10-15T23:16:57.897Z,15.80
2022-10-15T23:19:28.269Z,15.80
2022-10-15T23:22:00.160Z,15.70
2022-10-15T23:24:31.076Z,15.70
2022-10-15T23:27:04.028Z,15.70
2022-10-15T23:29:34.389Z,15.70
2022-10-15T23:32:04.783Z,15.70
2022-10-15T23:34:35.450Z,15.80
2022-10-15T23:37:05.739Z,15.70
2022-10-15T23:39:36.006Z,15.70
2022-10-15T23:42:08.995Z,15.70
2022-10-15T23:47:29.620Z,15.70
2022-10-15T23:49:59.832Z,15.70
2022-10-15T23:52:30.164Z,15.60
2022-10-15T23:55:00.525Z,15.60
2022-10-15T23:57:33.554Z,15.70
